sensor_id;sensor_type;location;lat;lon;timestamp;temperature;humidity
9125;DHT22;4597;48.730;9.114;2023-10-08T00:00:04;13.80;99.90
9125;DHT22;4597;48.730;9.114;2023-10-08T00:02:49;13.80;99.90
9125;DHT22;4597;48.730;9.114;2023-10-08T00:05:15;13.80;99.90
9125;DHT22;4597;48.730;9.114;2023-10-08T00:07:42;13.80;99.90
9125;DHT22;4597;48.730;9.114;2023-10-08T00:10:08;13.90;99.90
9125;DHT22;4597;48.730;9.114;2023-10-08T00:12:34;13.90;99.90
9125;DHT22;4597;48.730;9.114;2023-10-08T00:15:00;13.90;99.90
9125;DHT22;4597;48.730;9.114;2023-10-08T00:17:26;14.00;99.90
9125;DHT22;4597;48.730;9.114;2023-10-08T00:19:51;14.00;99.90
9125;DHT22;4597;48.730;9.114;2023-10-08T00:22:18;14.10;99.90
9125;DHT22;4597;48.730;9.114;2023-10-08T00:24:44;14.10;99.90
9125;DHT22;4597;48.730;9.114;2023-10-08T00:27:12;14.10;99.90
9125;DHT22;4597;48.730;9.114;2023-10-08T00:29:40;14.10;99.90
9125;DHT22;4597;48.730;9.114;2023-10-08T00:32:08;14.20;99.90
9125;DHT22;4597;48.730;9.114;2023-10-08T00:34:40;14.20;99.90
9125;DHT22;4597;48.730;9.114;2023-10-08T00:37:07;14.20;99.90
9125;DHT22;4597;48.730;9.114;2023-10-08T00:39:34;14.20;99.90
9125;DHT22;4597;48.730;9.114;2023-10-08T00:42:02;14.30;99.90
9125;DHT22;4597;48.730;9.114;2023-10-08T00:44:30;14.30;99.90
9125;DHT22;4597;48.730;9.114;2023-10-08T00:46:57;14.20;99.90
9125;DHT22;4597;48.730;9.114;2023-10-08T00:49:27;14.20;99.90
9125;DHT22;4597;48.730;9.114;2023-10-08T00:52:14;14.10;99.90
9125;DHT22;4597;48.730;9.114;2023-10-08T00:54:42;14.10;99.90
9125;DHT22;4597;48.730;9.114;2023-10-08T00:57:19;14.10;99.90
9125;DHT22;4597;48.730;9.114;2023-10-08T00:59:47;14.00;99.90
9125;DHT22;4597;48.730;9.114;2023-10-08T01:02:20;14.00;99.90
9125;DHT22;4597;48.730;9.114;2023-10-08T01:04:50;14.00;99.90
9125;DHT22;4597;48.730;9.114;2023-10-08T01:07:16;14.00;99.90
9125;DHT22;4597;48.730;9.114;2023-10-08T01:09:43;14.00;99.90
9125;DHT22;4597;48.730;9.114;2023-10-08T01:12:15;14.00;99.90
9125;DHT22;4597;48.730;9.114;2023-10-08T01:15:02;14.00;99.90
9125;DHT22;4597;48.730;9.114;2023-10-08T01:17:49;14.00;99.90
9125;DHT22;4597;48.730;9.114;2023-10-08T01:20:24;14.00;99.90
9125;DHT22;4597;48.730;9.114;2023-10-08T01:23:01;14.00;99.90
9125;DHT22;4597;48.730;9.114;2023-10-08T01:25:36;13.90;99.90
9125;DHT22;4597;48.730;9.114;2023-10-08T01:28:02;13.90;99.90
9125;DHT22;4597;48.730;9.114;2023-10-08T01:30:34;13.90;99.90
9125;DHT22;4597;48.730;9.114;2023-10-08T01:33:07;13.80;99.90
9125;DHT22;4597;48.730;9.114;2023-10-08T01:35:37;13.80;99.90
9125;DHT22;4597;48.730;9.114;2023-10-08T01:38:03;13.80;99.90
9125;DHT22;4597;48.730;9.114;2023-10-08T01:40:29;13.80;99.90
9125;DHT22;4597;48.730;9.114;2023-10-08T01:42:56;13.80;99.90
9125;DHT22;4597;48.730;9.114;2023-10-08T01:45:29;13.80;99.90
9125;DHT22;4597;48.730;9.114;2023-10-08T01:47:56;13.80;99.90
9125;DHT22;4597;48.730;9.114;2023-10-08T01:50:22;13.70;99.90
9125;DHT22;4597;48.730;9.114;2023-10-08T01:52:50;13.70;99.90
9125;DHT22;4597;48.730;9.114;2023-10-08T01:55:18;13.60;99.90
9125;DHT22;4597;48.730;9.114;2023-10-08T01:57:49;13.50;99.90
9125;DHT22;4597;48.730;9.114;2023-10-08T02:00:17;13.50;99.90
9125;DHT22;4597;48.730;9.114;2023-10-08T02:02:51;13.50;99.90
9125;DHT22;4597;48.730;9.114;2023-10-08T02:05:17;13.40;99.90
9125;DHT22;4597;48.730;9.114;2023-10-08T02:07:45;13.40;99.90
9125;DHT22;4597;48.730;9.114;2023-10-08T02:10:11;13.40;99.90
9125;DHT22;4597;48.730;9.114;2023-10-08T02:12:38;13.30;99.90
9125;DHT22;4597;48.730;9.114;2023-10-08T02:15:04;13.30;99.90
9125;DHT22;4597;48.730;9.114;2023-10-08T02:17:29;13.20;99.90
9125;DHT22;4597;48.730;9.114;2023-10-08T02:19:55;13.30;99.90
9125;DHT22;4597;48.730;9.114;2023-10-08T02:22:20;13.30;99.90
9125;DHT22;4597;48.730;9.114;2023-10-08T02:24:46;13.30;99.90
9125;DHT22;4597;48.730;9.114;2023-10-08T02:27:13;13.30;99.90
9125;DHT22;4597;48.730;9.114;2023-10-08T02:29:40;13.20;99.90
9125;DHT22;4597;48.730;9.114;2023-10-08T02:32:07;13.20;99.90
9125;DHT22;4597;48.730;9.114;2023-10-08T02:34:33;13.10;99.90
9125;DHT22;4597;48.730;9.114;2023-10-08T02:36:58;13.10;99.90
9125;DHT22;4597;48.730;9.114;2023-10-08T02:39:25;13.00;99.90
9125;DHT22;4597;48.730;9.114;2023-10-08T02:41:52;13.10;99.90
9125;DHT22;4597;48.730;9.114;2023-10-08T02:44:19;13.10;99.90
9125;DHT22;4597;48.730;9.114;2023-10-08T02:46:47;13.00;99.90
9125;DHT22;4597;48.730;9.114;2023-10-08T02:49:14;13.10;99.90
9125;DHT22;4597;48.730;9.114;2023-10-08T02:51:46;13.10;99.90
9125;DHT22;4597;48.730;9.114;2023-10-08T02:54:13;13.20;99.90
9125;DHT22;4597;48.730;9.114;2023-10-08T02:56:50;13.20;99.90
9125;DHT22;4597;48.730;9.114;2023-10-08T02:59:23;13.10;99.90
9125;DHT22;4597;48.730;9.114;2023-10-08T03:01:48;13.10;99.90
9125;DHT22;4597;48.730;9.114;2023-10-08T03:04:15;13.10;99.90
9125;DHT22;4597;48.730;9.114;2023-10-08T03:06:45;13.00;99.90
9125;DHT22;4597;48.730;9.114;2023-10-08T03:09:15;13.00;99.90
9125;DHT22;4597;48.730;9.114;2023-10-08T03:11:49;13.00;99.90
9125;DHT22;4597;48.730;9.114;2023-10-08T03:14:18;12.90;99.90
9125;DHT22;4597;48.730;9.114;2023-10-08T03:16:51;12.90;99.90
9125;DHT22;4597;48.730;9.114;2023-10-08T03:19:17;12.80;99.90
9125;DHT22;4597;48.730;9.114;2023-10-08T03:21:47;12.90;99.90
9125;DHT22;4597;48.730;9.114;2023-10-08T03:24:17;12.80;99.90
9125;DHT22;4597;48.730;9.114;2023-10-08T03:26:58;12.80;99.90
9125;DHT22;4597;48.730;9.114;2023-10-08T03:29:35;12.80;99.90
9125;DHT22;4597;48.730;9.114;2023-10-08T03:32:08;12.80;99.90
9125;DHT22;4597;48.730;9.114;2023-10-08T03:34:40;12.80;99.90
9125;DHT22;4597;48.730;9.114;2023-10-08T03:37:08;12.80;99.90
9125;DHT22;4597;48.730;9.114;2023-10-08T03:39:34;12.80;99.90
9125;DHT22;4597;48.730;9.114;2023-10-08T03:42:26;12.80;99.90
9125;DHT22;4597;48.730;9.114;2023-10-08T03:44:59;12.80;99.90
9125;DHT22;4597;48.730;9.114;2023-10-08T03:47:36;12.90;99.90
9125;DHT22;4597;48.730;9.114;2023-10-08T03:50:04;12.90;99.90
9125;DHT22;4597;48.730;9.114;2023-10-08T03:52:31;12.90;99.90
9125;DHT22;4597;48.730;9.114;2023-10-08T03:54:57;12.80;99.90
9125;DHT22;4597;48.730;9.114;2023-10-08T03:57:38;12.80;99.90
9125;DHT22;4597;48.730;9.114;2023-10-08T04:00:08;12.70;99.90
9125;DHT22;4597;48.730;9.114;2023-10-08T04:02:38;12.80;99.90
9125;DHT22;4597;48.730;9.114;2023-10-08T04:05:11;12.80;99.90
9125;DHT22;4597;48.730;9.114;2023-10-08T04:07:48;12.80;99.90
9125;DHT22;4597;48.730;9.114;2023-10-08T04:10:42;12.80;99.90
9125;DHT22;4597;48.730;9.114;2023-10-08T04:13:08;12.70;99.90
9125;DHT22;4597;48.730;9.114;2023-10-08T04:15:38;12.70;99.90
9125;DHT22;4597;48.730;9.114;2023-10-08T04:18:07;12.70;99.90
9125;DHT22;4597;48.730;9.114;2023-10-08T04:20:33;12.60;99.90
9125;DHT22;4597;48.730;9.114;2023-10-08T04:23:24;12.60;99.90
9125;DHT22;4597;48.730;9.114;2023-10-08T04:25:49;12.50;99.90
9125;DHT22;4597;48.730;9.114;2023-10-08T04:28:20;12.50;99.90
9125;DHT22;4597;48.730;9.114;2023-10-08T04:30:46;12.50;99.90
9125;DHT22;4597;48.730;9.114;2023-10-08T04:33:16;12.40;99.90
9125;DHT22;4597;48.730;9.114;2023-10-08T04:35:42;12.40;99.90
9125;DHT22;4597;48.730;9.114;2023-10-08T04:38:23;12.30;99.90
9125;DHT22;4597;48.730;9.114;2023-10-08T04:40:51;12.20;99.90
9125;DHT22;4597;48.730;9.114;2023-10-08T04:43:24;12.20;99.90
9125;DHT22;4597;48.730;9.114;2023-10-08T04:45:56;12.10;99.90
9125;DHT22;4597;48.730;9.114;2023-10-08T04:48:26;12.10;99.90
9125;DHT22;4597;48.730;9.114;2023-10-08T04:50:58;12.10;99.90
9125;DHT22;4597;48.730;9.114;2023-10-08T04:56:03;12.10;99.90
9125;DHT22;4597;48.730;9.114;2023-10-08T04:58:41;12.10;99.90
9125;DHT22;4597;48.730;9.114;2023-10-08T05:01:18;12.00;99.90
9125;DHT22;4597;48.730;9.114;2023-10-08T05:03:45;12.00;99.90
9125;DHT22;4597;48.730;9.114;2023-10-08T05:06:34;12.10;99.90
9125;DHT22;4597;48.730;9.114;2023-10-08T05:09:07;12.00;99.90
9125;DHT22;4597;48.730;9.114;2023-10-08T05:11:50;11.90;99.90
9125;DHT22;4597;48.730;9.114;2023-10-08T05:14:17;11.90;99.90
9125;DHT22;4597;48.730;9.114;2023-10-08T05:16:57;11.90;99.90
9125;DHT22;4597;48.730;9.114;2023-10-08T05:19:28;11.90;99.90
9125;DHT22;4597;48.730;9.114;2023-10-08T05:22:15;11.90;99.90
9125;DHT22;4597;48.730;9.114;2023-10-08T05:24:54;11.90;99.90
9125;DHT22;4597;48.730;9.114;2023-10-08T05:27:40;11.80;99.90
9125;DHT22;4597;48.730;9.114;2023-10-08T05:30:21;11.80;99.90
9125;DHT22;4597;48.730;9.114;2023-10-08T05:32:53;11.80;99.90
9125;DHT22;4597;48.730;9.114;2023-10-08T05:35:40;11.80;99.90
9125;DHT22;4597;48.730;9.114;2023-10-08T05:38:06;11.80;99.90
9125;DHT22;4597;48.730;9.114;2023-10-08T05:40:52;11.80;99.90
9125;DHT22;4597;48.730;9.114;2023-10-08T05:43:28;11.80;99.90
9125;DHT22;4597;48.730;9.114;2023-10-08T05:46:10;11.70;99.90
9125;DHT22;4597;48.730;9.114;2023-10-08T05:48:52;11.70;99.90
9125;DHT22;4597;48.730;9.114;2023-10-08T05:54:18;11.80;99.90
9125;DHT22;4597;48.730;9.114;2023-10-08T05:57:07;11.90;99.90
9125;DHT22;4597;48.730;9.114;2023-10-08T05:59:41;11.90;99.90
9125;DHT22;4597;48.730;9.114;2023-10-08T06:02:31;11.90;99.90
9125;DHT22;4597;48.730;9.114;2023-10-08T06:05:09;11.90;99.90
9125;DHT22;4597;48.730;9.114;2023-10-08T06:07:42;12.00;99.90
9125;DHT22;4597;48.730;9.114;2023-10-08T06:10:21;11.90;99.90
9125;DHT22;4597;48.730;9.114;2023-10-08T06:13:00;12.00;99.90
9125;DHT22;4597;48.730;9.114;2023-10-08T06:15:51;12.00;99.90
9125;DHT22;4597;48.730;9.114;2023-10-08T06:18:32;11.90;99.90
9125;DHT22;4597;48.730;9.114;2023-10-08T06:21:01;12.00;99.90
9125;DHT22;4597;48.730;9.114;2023-10-08T06:23:30;11.90;99.90
9125;DHT22;4597;48.730;9.114;2023-10-08T06:25:58;11.90;99.90
9125;DHT22;4597;48.730;9.114;2023-10-08T06:28:37;12.00;99.90
9125;DHT22;4597;48.730;9.114;2023-10-08T06:31:04;12.00;99.90
9125;DHT22;4597;48.730;9.114;2023-10-08T06:33:37;12.00;99.90
9125;DHT22;4597;48.730;9.114;2023-10-08T06:36:04;12.00;99.90
9125;DHT22;4597;48.730;9.114;2023-10-08T06:38:46;12.10;99.90
9125;DHT22;4597;48.730;9.114;2023-10-08T06:41:15;12.10;99.90
9125;DHT22;4597;48.730;9.114;2023-10-08T06:43:44;12.10;99.90
9125;DHT22;4597;48.730;9.114;2023-10-08T06:46:16;12.10;99.90
9125;DHT22;4597;48.730;9.114;2023-10-08T06:48:44;12.10;99.90
9125;DHT22;4597;48.730;9.114;2023-10-08T06:51:11;12.10;99.90
9125;DHT22;4597;48.730;9.114;2023-10-08T06:53:44;12.10;99.90
9125;DHT22;4597;48.730;9.114;2023-10-08T06:56:14;12.20;99.90
9125;DHT22;4597;48.730;9.114;2023-10-08T06:58:41;12.20;99.90
9125;DHT22;4597;48.730;9.114;2023-10-08T07:01:16;12.20;99.90
9125;DHT22;4597;48.730;9.114;2023-10-08T07:03:47;12.20;99.90
9125;DHT22;4597;48.730;9.114;2023-10-08T07:06:14;12.20;99.90
9125;DHT22;4597;48.730;9.114;2023-10-08T07:08:52;12.30;99.90
9125;DHT22;4597;48.730;9.114;2023-10-08T07:11:21;12.30;99.90
9125;DHT22;4597;48.730;9.114;2023-10-08T07:13:47;12.40;99.90
9125;DHT22;4597;48.730;9.114;2023-10-08T07:16:13;12.50;99.90
9125;DHT22;4597;48.730;9.114;2023-10-08T07:18:43;12.50;99.90
9125;DHT22;4597;48.730;9.114;2023-10-08T07:21:15;12.60;99.90
9125;DHT22;4597;48.730;9.114;2023-10-08T07:23:41;12.70;99.90
9125;DHT22;4597;48.730;9.114;2023-10-08T07:26:22;12.90;99.90
9125;DHT22;4597;48.730;9.114;2023-10-08T07:28:50;13.00;99.90
9125;DHT22;4597;48.730;9.114;2023-10-08T07:31:19;13.00;99.90
9125;DHT22;4597;48.730;9.114;2023-10-08T07:33:53;13.10;99.90
9125;DHT22;4597;48.730;9.114;2023-10-08T07:36:26;13.20;99.90
9125;DHT22;4597;48.730;9.114;2023-10-08T07:38:52;13.30;99.90
9125;DHT22;4597;48.730;9.114;2023-10-08T07:41:18;13.30;99.90
9125;DHT22;4597;48.730;9.114;2023-10-08T07:43:49;13.40;99.90
9125;DHT22;4597;48.730;9.114;2023-10-08T07:46:25;13.50;99.90
9125;DHT22;4597;48.730;9.114;2023-10-08T07:48:56;13.60;99.90
9125;DHT22;4597;48.730;9.114;2023-10-08T07:51:24;13.50;99.90
9125;DHT22;4597;48.730;9.114;2023-10-08T07:53:50;13.50;99.90
9125;DHT22;4597;48.730;9.114;2023-10-08T07:56:20;13.50;99.90
9125;DHT22;4597;48.730;9.114;2023-10-08T07:58:45;13.50;99.90
9125;DHT22;4597;48.730;9.114;2023-10-08T08:01:12;13.50;99.90
9125;DHT22;4597;48.730;9.114;2023-10-08T08:03:40;13.50;99.90
9125;DHT22;4597;48.730;9.114;2023-10-08T08:06:07;13.50;99.90
9125;DHT22;4597;48.730;9.114;2023-10-08T08:08:37;13.50;99.90
9125;DHT22;4597;48.730;9.114;2023-10-08T08:11:03;13.60;99.90
9125;DHT22;4597;48.730;9.114;2023-10-08T08:13:33;13.70;99.90
9125;DHT22;4597;48.730;9.114;2023-10-08T08:15:59;13.80;99.90
9125;DHT22;4597;48.730;9.114;2023-10-08T08:18:48;13.90;99.90
9125;DHT22;4597;48.730;9.114;2023-10-08T08:21:19;14.00;99.90
9125;DHT22;4597;48.730;9.114;2023-10-08T08:23:48;14.30;99.90
9125;DHT22;4597;48.730;9.114;2023-10-08T08:26:18;14.40;99.90
9125;DHT22;4597;48.730;9.114;2023-10-08T08:28:55;14.60;99.90
9125;DHT22;4597;48.730;9.114;2023-10-08T08:31:22;14.80;99.90
9125;DHT22;4597;48.730;9.114;2023-10-08T08:33:48;15.00;99.90
9125;DHT22;4597;48.730;9.114;2023-10-08T08:36:29;15.20;99.90
9125;DHT22;4597;48.730;9.114;2023-10-08T08:38:55;15.30;99.90
9125;DHT22;4597;48.730;9.114;2023-10-08T08:41:21;15.40;99.90
9125;DHT22;4597;48.730;9.114;2023-10-08T08:43:52;15.60;99.90
9125;DHT22;4597;48.730;9.114;2023-10-08T08:46:42;15.70;99.90
9125;DHT22;4597;48.730;9.114;2023-10-08T08:49:09;15.90;99.90
9125;DHT22;4597;48.730;9.114;2023-10-08T08:51:38;16.10;99.90
9125;DHT22;4597;48.730;9.114;2023-10-08T08:54:05;16.10;99.90
9125;DHT22;4597;48.730;9.114;2023-10-08T08:56:35;16.20;99.90
9125;DHT22;4597;48.730;9.114;2023-10-08T08:59:02;16.50;99.90
9125;DHT22;4597;48.730;9.114;2023-10-08T09:01:30;16.50;99.90
9125;DHT22;4597;48.730;9.114;2023-10-08T09:04:00;16.80;99.90
9125;DHT22;4597;48.730;9.114;2023-10-08T09:06:27;17.00;99.90
9125;DHT22;4597;48.730;9.114;2023-10-08T09:08:53;17.20;99.90
9125;DHT22;4597;48.730;9.114;2023-10-08T09:11:21;17.30;99.90
9125;DHT22;4597;48.730;9.114;2023-10-08T09:13:47;17.70;99.90
9125;DHT22;4597;48.730;9.114;2023-10-08T09:16:14;17.80;99.90
9125;DHT22;4597;48.730;9.114;2023-10-08T09:18:50;18.00;99.90
9125;DHT22;4597;48.730;9.114;2023-10-08T09:21:19;18.20;99.90
9125;DHT22;4597;48.730;9.114;2023-10-08T09:23:52;18.30;99.90
9125;DHT22;4597;48.730;9.114;2023-10-08T09:26:23;18.60;99.90
9125;DHT22;4597;48.730;9.114;2023-10-08T09:28:49;18.80;99.90
9125;DHT22;4597;48.730;9.114;2023-10-08T09:31:17;18.90;99.90
9125;DHT22;4597;48.730;9.114;2023-10-08T09:33:44;18.90;99.90
9125;DHT22;4597;48.730;9.114;2023-10-08T09:36:18;19.10;99.90
9125;DHT22;4597;48.730;9.114;2023-10-08T09:38:45;19.20;99.70
9125;DHT22;4597;48.730;9.114;2023-10-08T09:41:14;19.30;99.40
9125;DHT22;4597;48.730;9.114;2023-10-08T09:43:40;19.40;96.70
9125;DHT22;4597;48.730;9.114;2023-10-08T09:46:18;19.50;98.10
9125;DHT22;4597;48.730;9.114;2023-10-08T09:48:51;19.40;98.80
9125;DHT22;4597;48.730;9.114;2023-10-08T09:51:18;19.60;95.80
9125;DHT22;4597;48.730;9.114;2023-10-08T09:56:36;19.80;95.00
9125;DHT22;4597;48.730;9.114;2023-10-08T09:59:02;19.90;93.60
9125;DHT22;4597;48.730;9.114;2023-10-08T10:01:28;19.90;93.00
9125;DHT22;4597;48.730;9.114;2023-10-08T10:03:56;19.90;92.60
9125;DHT22;4597;48.730;9.114;2023-10-08T10:06:25;19.90;92.90
9125;DHT22;4597;48.730;9.114;2023-10-08T10:08:51;19.90;92.80
9125;DHT22;4597;48.730;9.114;2023-10-08T10:11:26;19.90;92.80
9125;DHT22;4597;48.730;9.114;2023-10-08T10:13:58;19.90;93.20
9125;DHT22;4597;48.730;9.114;2023-10-08T10:16:28;19.80;93.80
9125;DHT22;4597;48.730;9.114;2023-10-08T10:18:57;19.80;94.40
9125;DHT22;4597;48.730;9.114;2023-10-08T10:21:31;19.80;93.20
9125;DHT22;4597;48.730;9.114;2023-10-08T10:23:57;19.90;93.20
9125;DHT22;4597;48.730;9.114;2023-10-08T10:26:27;19.80;93.70
9125;DHT22;4597;48.730;9.114;2023-10-08T10:34:13;20.10;93.20
9125;DHT22;4597;48.730;9.114;2023-10-08T10:36:42;20.10;92.30
9125;DHT22;4597;48.730;9.114;2023-10-08T10:39:09;20.20;91.40
9125;DHT22;4597;48.730;9.114;2023-10-08T10:41:48;20.30;90.90
9125;DHT22;4597;48.730;9.114;2023-10-08T10:44:15;20.40;90.50
9125;DHT22;4597;48.730;9.114;2023-10-08T10:46:42;20.50;90.40
9125;DHT22;4597;48.730;9.114;2023-10-08T10:49:09;20.50;90.70
9125;DHT22;4597;48.730;9.114;2023-10-08T10:51:48;20.60;89.50
9125;DHT22;4597;48.730;9.114;2023-10-08T10:54:18;20.60;88.10
9125;DHT22;4597;48.730;9.114;2023-10-08T10:56:47;20.50;90.10
9125;DHT22;4597;48.730;9.114;2023-10-08T10:59:13;20.50;88.40
9125;DHT22;4597;48.730;9.114;2023-10-08T11:01:50;20.50;91.00
9125;DHT22;4597;48.730;9.114;2023-10-08T11:04:31;20.60;85.80
9125;DHT22;4597;48.730;9.114;2023-10-08T11:06:57;20.80;82.90
9125;DHT22;4597;48.730;9.114;2023-10-08T11:09:24;20.80;79.70
9125;DHT22;4597;48.730;9.114;2023-10-08T11:12:06;20.80;81.70
9125;DHT22;4597;48.730;9.114;2023-10-08T11:14:41;20.80;81.60
9125;DHT22;4597;48.730;9.114;2023-10-08T11:17:23;20.80;80.70
9125;DHT22;4597;48.730;9.114;2023-10-08T11:19:49;20.90;80.00
9125;DHT22;4597;48.730;9.114;2023-10-08T11:22:16;20.90;78.60
9125;DHT22;4597;48.730;9.114;2023-10-08T11:24:43;21.10;74.90
9125;DHT22;4597;48.730;9.114;2023-10-08T11:27:19;21.20;74.10
9125;DHT22;4597;48.730;9.114;2023-10-08T11:29:55;21.30;74.80
9125;DHT22;4597;48.730;9.114;2023-10-08T11:32:26;21.40;72.10
9125;DHT22;4597;48.730;9.114;2023-10-08T11:34:59;21.50;72.10
9125;DHT22;4597;48.730;9.114;2023-10-08T11:37:29;21.60;69.80
9125;DHT22;4597;48.730;9.114;2023-10-08T11:39:55;21.60;70.40
9125;DHT22;4597;48.730;9.114;2023-10-08T11:42:24;21.70;69.80
9125;DHT22;4597;48.730;9.114;2023-10-08T11:45:11;21.90;68.60
9125;DHT22;4597;48.730;9.114;2023-10-08T11:48:06;22.00;70.60
9125;DHT22;4597;48.730;9.114;2023-10-08T11:50:40;22.20;65.00
9125;DHT22;4597;48.730;9.114;2023-10-08T11:53:06;22.40;64.60
9125;DHT22;4597;48.730;9.114;2023-10-08T11:55:33;22.50;65.00
9125;DHT22;4597;48.730;9.114;2023-10-08T11:58:05;22.60;63.20
9125;DHT22;4597;48.730;9.114;2023-10-08T12:00:38;22.70;59.00
9125;DHT22;4597;48.730;9.114;2023-10-08T12:03:14;22.90;56.20
9125;DHT22;4597;48.730;9.114;2023-10-08T12:05:48;22.90;59.10
9125;DHT22;4597;48.730;9.114;2023-10-08T12:08:15;23.00;53.50
9125;DHT22;4597;48.730;9.114;2023-10-08T12:10:44;23.00;54.30
9125;DHT22;4597;48.730;9.114;2023-10-08T12:13:15;23.00;52.50
9125;DHT22;4597;48.730;9.114;2023-10-08T12:15:43;23.10;49.70
9125;DHT22;4597;48.730;9.114;2023-10-08T12:18:10;23.20;50.10
9125;DHT22;4597;48.730;9.114;2023-10-08T12:20:50;23.30;48.20
9125;DHT22;4597;48.730;9.114;2023-10-08T12:23:16;23.40;48.70
9125;DHT22;4597;48.730;9.114;2023-10-08T12:25:54;23.50;47.10
9125;DHT22;4597;48.730;9.114;2023-10-08T12:28:24;23.50;46.60
9125;DHT22;4597;48.730;9.114;2023-10-08T12:30:51;23.60;45.00
9125;DHT22;4597;48.730;9.114;2023-10-08T12:33:20;23.70;45.00
9125;DHT22;4597;48.730;9.114;2023-10-08T12:35:49;23.80;44.80
9125;DHT22;4597;48.730;9.114;2023-10-08T12:38:14;23.90;43.20
9125;DHT22;4597;48.730;9.114;2023-10-08T12:40:41;24.00;43.60
9125;DHT22;4597;48.730;9.114;2023-10-08T12:43:23;24.00;41.90
9125;DHT22;4597;48.730;9.114;2023-10-08T12:45:52;24.20;42.60
9125;DHT22;4597;48.730;9.114;2023-10-08T12:48:22;24.30;43.90
9125;DHT22;4597;48.730;9.114;2023-10-08T12:50:48;24.40;41.70
9125;DHT22;4597;48.730;9.114;2023-10-08T12:53:27;24.50;41.20
9125;DHT22;4597;48.730;9.114;2023-10-08T12:55:55;24.60;40.50
9125;DHT22;4597;48.730;9.114;2023-10-08T12:58:24;24.60;40.50
9125;DHT22;4597;48.730;9.114;2023-10-08T13:00:55;24.80;39.60
9125;DHT22;4597;48.730;9.114;2023-10-08T13:03:25;24.90;40.00
9125;DHT22;4597;48.730;9.114;2023-10-08T13:05:51;25.00;38.70
9125;DHT22;4597;48.730;9.114;2023-10-08T13:08:32;25.20;38.10
9125;DHT22;4597;48.730;9.114;2023-10-08T13:10:59;25.30;38.30
9125;DHT22;4597;48.730;9.114;2023-10-08T13:13:30;25.40;37.40
9125;DHT22;4597;48.730;9.114;2023-10-08T13:15:56;25.50;36.60
9125;DHT22;4597;48.730;9.114;2023-10-08T13:18:23;25.70;37.20
9125;DHT22;4597;48.730;9.114;2023-10-08T13:20:51;25.70;35.50
9125;DHT22;4597;48.730;9.114;2023-10-08T13:23:17;25.80;36.10
9125;DHT22;4597;48.730;9.114;2023-10-08T13:25:44;25.80;35.30
9125;DHT22;4597;48.730;9.114;2023-10-08T13:28:12;26.00;35.70
9125;DHT22;4597;48.730;9.114;2023-10-08T13:30:37;26.10;35.80
9125;DHT22;4597;48.730;9.114;2023-10-08T13:33:03;26.20;33.80
9125;DHT22;4597;48.730;9.114;2023-10-08T13:35:29;26.20;34.20
9125;DHT22;4597;48.730;9.114;2023-10-08T13:37:54;26.30;34.70
9125;DHT22;4597;48.730;9.114;2023-10-08T13:40:21;26.40;35.20
9125;DHT22;4597;48.730;9.114;2023-10-08T13:42:58;26.60;34.00
9125;DHT22;4597;48.730;9.114;2023-10-08T13:45:24;26.70;33.50
9125;DHT22;4597;48.730;9.114;2023-10-08T13:47:52;26.50;35.70
9125;DHT22;4597;48.730;9.114;2023-10-08T13:50:18;26.30;35.10
9125;DHT22;4597;48.730;9.114;2023-10-08T13:52:43;26.10;37.50
9125;DHT22;4597;48.730;9.114;2023-10-08T13:55:10;25.80;37.10
9125;DHT22;4597;48.730;9.114;2023-10-08T13:57:39;25.80;37.80
9125;DHT22;4597;48.730;9.114;2023-10-08T14:00:07;25.90;37.90
9125;DHT22;4597;48.730;9.114;2023-10-08T14:02:42;26.10;36.30
9125;DHT22;4597;48.730;9.114;2023-10-08T14:05:08;26.30;36.70
9125;DHT22;4597;48.730;9.114;2023-10-08T14:07:35;26.50;37.10
9125;DHT22;4597;48.730;9.114;2023-10-08T14:10:01;26.80;34.50
9125;DHT22;4597;48.730;9.114;2023-10-08T14:12:31;26.80;36.10
9125;DHT22;4597;48.730;9.114;2023-10-08T14:15:01;27.20;35.80
9125;DHT22;4597;48.730;9.114;2023-10-08T14:17:32;27.50;36.20
9125;DHT22;4597;48.730;9.114;2023-10-08T14:20:14;27.70;35.50
9125;DHT22;4597;48.730;9.114;2023-10-08T14:22:40;27.60;35.50
9125;DHT22;4597;48.730;9.114;2023-10-08T14:25:09;27.70;35.60
9125;DHT22;4597;48.730;9.114;2023-10-08T14:27:37;27.60;34.80
9125;DHT22;4597;48.730;9.114;2023-10-08T14:30:08;27.70;34.10
9125;DHT22;4597;48.730;9.114;2023-10-08T14:32:41;27.60;34.50
9125;DHT22;4597;48.730;9.114;2023-10-08T14:35:12;27.60;35.10
9125;DHT22;4597;48.730;9.114;2023-10-08T14:37:56;27.70;35.10
9125;DHT22;4597;48.730;9.114;2023-10-08T14:40:40;27.90;35.10
9125;DHT22;4597;48.730;9.114;2023-10-08T14:43:24;28.10;35.20
9125;DHT22;4597;48.730;9.114;2023-10-08T14:45:50;28.20;34.20
9125;DHT22;4597;48.730;9.114;2023-10-08T14:48:18;28.10;34.90
9125;DHT22;4597;48.730;9.114;2023-10-08T14:50:43;27.80;35.50
9125;DHT22;4597;48.730;9.114;2023-10-08T14:53:09;27.20;36.40
9125;DHT22;4597;48.730;9.114;2023-10-08T14:55:37;27.00;37.30
9125;DHT22;4597;48.730;9.114;2023-10-08T14:58:05;26.70;37.70
9125;DHT22;4597;48.730;9.114;2023-10-08T15:00:35;26.50;38.40
9125;DHT22;4597;48.730;9.114;2023-10-08T15:03:04;26.60;38.80
9125;DHT22;4597;48.730;9.114;2023-10-08T15:05:29;26.50;38.60
9125;DHT22;4597;48.730;9.114;2023-10-08T15:07:56;26.30;39.30
9125;DHT22;4597;48.730;9.114;2023-10-08T15:10:22;26.50;39.40
9125;DHT22;4597;48.730;9.114;2023-10-08T15:12:48;26.70;38.90
9125;DHT22;4597;48.730;9.114;2023-10-08T15:15:14;26.80;39.40
9125;DHT22;4597;48.730;9.114;2023-10-08T15:17:47;26.40;39.50
9125;DHT22;4597;48.730;9.114;2023-10-08T15:20:15;26.20;39.60
9125;DHT22;4597;48.730;9.114;2023-10-08T15:22:43;26.00;39.60
9125;DHT22;4597;48.730;9.114;2023-10-08T15:25:12;25.90;39.70
9125;DHT22;4597;48.730;9.114;2023-10-08T15:27:39;26.00;39.80
9125;DHT22;4597;48.730;9.114;2023-10-08T15:30:07;26.40;39.70
9125;DHT22;4597;48.730;9.114;2023-10-08T15:32:39;27.10;38.20
9125;DHT22;4597;48.730;9.114;2023-10-08T15:35:07;27.90;36.30
9125;DHT22;4597;48.730;9.114;2023-10-08T15:37:35;28.60;36.00
9125;DHT22;4597;48.730;9.114;2023-10-08T15:40:01;29.10;34.40
9125;DHT22;4597;48.730;9.114;2023-10-08T15:42:32;29.50;34.20
9125;DHT22;4597;48.730;9.114;2023-10-08T15:44:57;29.20;32.10
9125;DHT22;4597;48.730;9.114;2023-10-08T15:47:23;29.10;32.90
9125;DHT22;4597;48.730;9.114;2023-10-08T15:49:48;28.80;33.90
9125;DHT22;4597;48.730;9.114;2023-10-08T15:52:14;28.60;33.70
9125;DHT22;4597;48.730;9.114;2023-10-08T15:54:41;28.80;35.00
9125;DHT22;4597;48.730;9.114;2023-10-08T15:57:09;28.90;33.90
9125;DHT22;4597;48.730;9.114;2023-10-08T15:59:34;28.80;33.40
9125;DHT22;4597;48.730;9.114;2023-10-08T16:02:00;28.70;34.00
9125;DHT22;4597;48.730;9.114;2023-10-08T16:04:25;28.50;35.60
9125;DHT22;4597;48.730;9.114;2023-10-08T16:06:53;28.20;35.40
9125;DHT22;4597;48.730;9.114;2023-10-08T16:09:19;27.70;37.10
9125;DHT22;4597;48.730;9.114;2023-10-08T16:11:47;27.30;37.50
9125;DHT22;4597;48.730;9.114;2023-10-08T16:14:13;26.90;37.00
9125;DHT22;4597;48.730;9.114;2023-10-08T16:16:38;26.60;38.60
9125;DHT22;4597;48.730;9.114;2023-10-08T16:19:04;26.10;38.90
9125;DHT22;4597;48.730;9.114;2023-10-08T16:21:29;25.90;39.40
9125;DHT22;4597;48.730;9.114;2023-10-08T16:23:58;25.70;41.00
9125;DHT22;4597;48.730;9.114;2023-10-08T16:26:24;25.30;43.10
9125;DHT22;4597;48.730;9.114;2023-10-08T16:28:50;24.90;41.20
9125;DHT22;4597;48.730;9.114;2023-10-08T16:31:16;24.70;43.70
9125;DHT22;4597;48.730;9.114;2023-10-08T16:33:41;24.40;43.30
9125;DHT22;4597;48.730;9.114;2023-10-08T16:36:07;24.20;42.30